createdAt,value
2023-03-13T00:00:43.115Z,25.97
2023-03-13T00:01:43.172Z,25.96
2023-03-13T00:02:43.099Z,25.99
2023-03-13T00:03:43.087Z,25.95
2023-03-13T00:04:43.161Z,25.97
2023-03-13T00:55:28.721Z,25.97
2023-03-13T00:56:29.634Z,25.97
2023-03-13T00:57:29.630Z,25.97
2023-03-13T00:58:29.641Z,25.97
2023-03-13T00:59:30.420Z,25.95
2023-03-13T01:00:29.622Z,25.96
2023-03-13T01:01:29.595Z,25.97
2023-03-13T01:02:29.723Z,25.97
2023-03-13T01:03:29.656Z,25.97
2023-03-13T01:04:29.597Z,26.00
2023-03-13T01:05:29.570Z,25.96
2023-03-13T01:06:29.564Z,25.96
2023-03-13T01:07:29.552Z,25.96
2023-03-13T01:08:29.540Z,25.95
2023-03-13T01:09:29.538Z,25.97
2023-03-13T01:10:29.537Z,25.93
2023-03-13T01:11:29.567Z,25.93
2023-03-13T01:12:29.506Z,25.96
2023-03-13T01:13:29.507Z,25.96
2023-03-13T01:14:29.482Z,25.95
2023-03-13T01:15:29.532Z,25.96
2023-03-13T01:16:29.497Z,25.93
2023-03-13T01:17:29.458Z,25.95
2023-03-13T01:18:29.453Z,25.96
2023-03-13T01:19:29.443Z,25.95
2023-03-13T01:20:29.439Z,25.95
2023-03-13T01:21:29.439Z,25.96
2023-03-13T01:22:29.422Z,25.97
2023-03-13T01:23:29.418Z,25.93
2023-03-13T01:24:29.398Z,25.95
2023-03-13T01:25:29.412Z,25.95
2023-03-13T01:26:29.397Z,25.93
2023-03-13T01:27:29.400Z,25.96
2023-03-13T01:28:29.373Z,25.95
2023-03-13T01:29:29.355Z,25.96
2023-03-13T01:30:29.424Z,25.96
2023-03-13T01:31:29.459Z,25.93
2023-03-13T01:32:29.373Z,25.96
2023-03-13T01:33:29.307Z,25.92
2023-03-13T01:34:29.301Z,25.95
2023-03-13T01:35:29.416Z,25.95
2023-03-13T01:36:29.331Z,25.95
2023-03-13T01:37:29.291Z,25.93
2023-03-13T01:38:29.265Z,25.96
2023-03-13T01:39:29.260Z,25.95
2023-03-13T01:40:29.244Z,25.93
2023-03-13T01:41:29.259Z,25.93
2023-03-13T01:42:29.221Z,25.96
2023-03-13T01:43:29.290Z,25.95
2023-03-13T01:44:29.230Z,25.96
2023-03-13T01:45:29.255Z,25.92
2023-03-13T01:46:29.351Z,25.95
2023-03-13T01:47:29.177Z,25.93
2023-03-13T01:48:29.195Z,25.95
2023-03-13T01:49:29.160Z,25.93
2023-03-13T01:50:29.195Z,25.96
2023-03-13T01:51:29.182Z,25.96
2023-03-13T01:52:29.136Z,25.96
2023-03-13T01:53:29.132Z,25.93
2023-03-13T01:54:29.467Z,25.95
2023-03-13T01:55:29.202Z,25.95
2023-03-13T01:56:29.964Z,25.93
2023-03-13T01:57:29.086Z,25.95
2023-03-13T01:58:29.079Z,25.92
2023-03-13T01:59:29.104Z,25.95
2023-03-13T02:00:29.143Z,25.95
2023-03-13T02:01:29.142Z,25.95
2023-03-13T02:02:29.080Z,25.95
2023-03-13T02:03:29.031Z,25.93
2023-03-13T02:04:29.023Z,25.95
2023-03-13T02:05:29.961Z,25.96
2023-03-13T02:06:29.015Z,25.95
2023-03-13T02:07:29.006Z,25.93
2023-03-13T02:08:28.993Z,25.92
2023-03-13T02:09:28.976Z,25.95
2023-03-13T02:10:28.969Z,25.93
2023-03-13T02:11:28.974Z,25.95
2023-03-13T02:12:28.952Z,25.92
2023-03-13T02:13:28.942Z,25.92
2023-03-13T02:14:28.937Z,25.93
2023-03-13T02:15:28.975Z,25.95
2023-03-13T02:16:29.055Z,25.93
2023-03-13T02:17:28.944Z,25.93
2023-03-13T02:18:28.892Z,25.92
2023-03-13T02:19:29.358Z,25.95
2023-03-13T02:20:28.879Z,25.93
2023-03-13T02:21:28.913Z,25.92
2023-03-13T02:22:28.915Z,25.95
2023-03-13T02:23:28.870Z,25.93
2023-03-13T02:24:28.840Z,25.92
2023-03-13T02:25:28.833Z,25.95
2023-03-13T02:26:28.850Z,25.92
2023-03-13T02:27:28.817Z,25.93
2023-03-13T02:28:28.804Z,25.95
2023-03-13T02:29:28.798Z,25.91
2023-03-13T02:30:28.789Z,25.92
2023-03-13T02:31:28.874Z,25.95
2023-03-13T02:32:28.834Z,25.95
2023-03-13T02:33:28.761Z,25.92
2023-03-13T02:34:28.755Z,25.92
2023-03-13T02:35:28.792Z,25.92
2023-03-13T02:36:28.760Z,25.93
2023-03-13T02:37:28.768Z,25.93
2023-03-13T02:38:28.715Z,25.92
2023-03-13T02:39:28.698Z,25.95
2023-03-13T02:40:29.002Z,25.92
2023-03-13T02:41:28.682Z,25.91
2023-03-13T02:42:28.705Z,25.93
2023-03-13T02:43:28.665Z,25.93
2023-03-13T02:44:29.480Z,25.93
2023-03-13T02:45:28.653Z,25.93
2023-03-13T02:46:28.752Z,25.91
2023-03-13T02:47:28.647Z,25.95
2023-03-13T02:48:28.614Z,25.93
2023-03-13T02:49:28.609Z,25.93
2023-03-13T02:50:28.598Z,25.95
2023-03-13T02:51:28.625Z,25.93
2023-03-13T02:52:28.590Z,25.92
2023-03-13T02:53:28.592Z,25.93
2023-03-13T02:54:28.596Z,25.93
2023-03-13T02:55:28.567Z,25.93
2023-03-13T02:56:28.564Z,25.92
2023-03-13T02:57:28.533Z,25.91
2023-03-13T02:58:30.276Z,25.91
2023-03-13T02:59:28.513Z,25.93
2023-03-13T03:00:28.564Z,25.92
2023-03-13T03:01:28.527Z,25.92
2023-03-13T03:02:28.605Z,25.92
2023-03-13T03:03:28.501Z,25.91
2023-03-13T03:04:28.993Z,25.93
2023-03-13T03:05:28.476Z,25.92
2023-03-13T03:06:28.993Z,25.93
2023-03-13T03:07:28.474Z,25.93
2023-03-13T03:08:28.431Z,25.92
2023-03-13T03:09:28.453Z,25.92
2023-03-13T03:10:28.471Z,25.92
2023-03-13T03:11:28.409Z,25.93
2023-03-13T03:12:28.426Z,25.95
2023-03-13T03:13:28.382Z,25.93
2023-03-13T03:14:28.375Z,25.92
2023-03-13T03:15:28.362Z,25.93
2023-03-13T03:16:28.455Z,25.93
2023-03-13T03:17:28.374Z,25.93
2023-03-13T03:18:28.421Z,25.92
2023-03-13T03:19:29.050Z,25.93
2023-03-13T03:20:28.320Z,25.93
2023-03-13T03:21:28.313Z,25.92
2023-03-13T03:22:28.311Z,25.93
2023-03-13T03:23:28.287Z,25.93
2023-03-13T03:24:28.275Z,25.93
2023-03-13T03:25:28.265Z,25.93
2023-03-13T03:26:28.258Z,25.93
2023-03-13T03:27:28.262Z,25.93
2023-03-13T03:28:28.242Z,25.93
2023-03-13T03:29:28.266Z,25.93
2023-03-13T03:30:28.215Z,25.93
2023-03-13T03:31:28.293Z,25.95
2023-03-13T03:32:28.266Z,25.92
2023-03-13T03:33:28.209Z,25.89
2023-03-13T03:34:28.188Z,25.92
2023-03-13T03:35:28.205Z,25.93
2023-03-13T03:36:28.169Z,25.93
2023-03-13T03:37:28.266Z,25.93
2023-03-13T03:38:28.179Z,25.92
2023-03-13T03:39:28.146Z,25.92
2023-03-13T03:40:28.122Z,25.92
2023-03-13T03:41:28.116Z,25.92
2023-03-13T03:42:28.108Z,25.92
2023-03-13T03:43:30.014Z,25.92
2023-03-13T03:44:28.104Z,25.92
2023-03-13T03:45:28.192Z,25.92
2023-03-13T03:46:28.078Z,25.95
2023-03-13T03:47:28.110Z,25.91
2023-03-13T03:48:28.052Z,25.91
2023-03-13T03:49:28.053Z,25.92
2023-03-13T03:50:28.033Z,25.91
2023-03-13T03:51:28.066Z,25.91
2023-03-13T03:52:28.040Z,25.91
2023-03-13T03:53:28.083Z,25.92
2023-03-13T03:54:28.001Z,25.92
2023-03-13T03:55:27.994Z,25.93
2023-03-13T03:56:27.980Z,25.93
2023-03-13T03:57:28.000Z,25.92
2023-03-13T03:58:27.988Z,25.92
2023-03-13T03:59:28.010Z,25.92
2023-03-13T04:00:27.957Z,25.92
2023-03-13T04:01:27.937Z,25.91
2023-03-13T04:02:28.027Z,25.92
2023-03-13T04:03:28.043Z,25.92
2023-03-13T04:04:27.960Z,25.92
2023-03-13T04:05:27.899Z,25.95
2023-03-13T04:06:27.894Z,25.92
2023-03-13T04:07:27.936Z,25.91
2023-03-13T04:08:27.873Z,25.91
2023-03-13T04:09:29.917Z,25.92
2023-03-13T04:10:28.518Z,25.92
2023-03-13T04:11:28.522Z,25.93
2023-03-13T04:12:27.836Z,25.89
2023-03-13T04:13:27.828Z,25.91
2023-03-13T04:14:28.026Z,25.92
2023-03-13T04:15:27.866Z,25.92
2023-03-13T04:16:27.860Z,25.92
2023-03-13T04:17:27.795Z,25.92
2023-03-13T04:18:27.780Z,25.91
2023-03-13T04:19:27.804Z,25.93
2023-03-13T04:20:27.769Z,25.93
2023-03-13T04:21:27.751Z,25.95
2023-03-13T04:22:27.745Z,25.91
2023-03-13T04:23:27.762Z,25.91
2023-03-13T04:24:27.757Z,25.93
2023-03-13T04:25:27.727Z,25.91
2023-03-13T04:26:27.713Z,25.92
2023-03-13T04:27:27.800Z,25.91
2023-03-13T04:28:27.696Z,25.93
2023-03-13T04:29:27.682Z,25.93
2023-03-13T04:30:27.671Z,25.93
2023-03-13T04:31:27.672Z,25.92
2023-03-13T04:32:27.718Z,25.92
2023-03-13T04:33:27.678Z,25.92
2023-03-13T04:34:27.636Z,25.91
2023-03-13T04:35:27.713Z,25.93
2023-03-13T04:36:27.693Z,25.92
2023-03-13T04:37:27.613Z,25.92
2023-03-13T04:38:27.625Z,25.93
2023-03-13T04:39:27.621Z,25.91
2023-03-13T04:40:27.625Z,25.93
2023-03-13T04:41:27.596Z,25.93
2023-03-13T04:42:27.564Z,25.91
2023-03-13T04:43:27.619Z,25.92
2023-03-13T04:44:27.575Z,25.92
2023-03-13T04:45:27.541Z,25.95
2023-03-13T04:46:27.581Z,25.92
2023-03-13T04:47:27.521Z,25.93
2023-03-13T04:48:27.555Z,25.92
2023-03-13T04:49:27.534Z,25.92
2023-03-13T04:50:27.498Z,25.93
2023-03-13T04:51:27.481Z,25.89
2023-03-13T04:52:30.041Z,25.92
2023-03-13T04:53:27.492Z,25.89
2023-03-13T04:54:27.460Z,25.92
2023-03-13T04:55:27.491Z,25.92
2023-03-13T04:56:42.187Z,25.92
2023-03-13T04:57:28.160Z,25.92
2023-03-13T04:58:27.450Z,25.93
2023-03-13T04:59:27.414Z,25.91
2023-03-13T05:00:27.396Z,25.92
2023-03-13T05:01:27.502Z,25.89
2023-03-13T05:02:27.383Z,25.91
2023-03-13T05:03:27.415Z,25.91
2023-03-13T05:04:28.044Z,25.93
2023-03-13T05:05:27.425Z,25.91
2023-03-13T05:06:27.350Z,25.92
2023-03-13T05:07:28.064Z,25.92
2023-03-13T05:08:27.836Z,25.92
2023-03-13T05:09:27.318Z,25.91
2023-03-13T05:10:27.307Z,25.89
2023-03-13T05:11:27.326Z,25.91
2023-03-13T05:12:27.416Z,25.89
2023-03-13T05:13:27.364Z,25.91
2023-03-13T05:14:27.277Z,25.92
2023-03-13T05:15:27.264Z,25.91
2023-03-13T05:16:30.068Z,25.92
2023-03-13T05:17:27.267Z,25.91
2023-03-13T05:18:28.049Z,25.92
2023-03-13T05:19:27.241Z,25.92
2023-03-13T05:20:27.222Z,25.92
2023-03-13T05:21:27.208Z,25.91
2023-03-13T05:22:27.215Z,25.92
2023-03-13T05:23:27.192Z,25.91
2023-03-13T05:24:30.061Z,25.92
2023-03-13T05:25:27.211Z,25.91
2023-03-13T05:26:27.174Z,25.89
2023-03-13T05:27:28.173Z,25.92
2023-03-13T05:28:27.143Z,25.89
2023-03-13T05:29:27.143Z,25.89
2023-03-13T05:30:27.118Z,25.89
2023-03-13T05:31:27.202Z,25.91
2023-03-13T05:32:27.153Z,25.89
2023-03-13T05:33:27.108Z,25.91
2023-03-13T05:34:27.147Z,25.91
2023-03-13T05:35:27.114Z,25.89
2023-03-13T05:36:27.081Z,25.91
2023-03-13T05:37:28.058Z,25.89
2023-03-13T05:38:27.102Z,25.88
2023-03-13T05:39:27.090Z,25.91
2023-03-13T05:41:27.026Z,25.91
2023-03-13T05:42:27.560Z,25.91
2023-03-13T05:43:27.112Z,25.92
2023-03-13T05:44:27.042Z,25.91
2023-03-13T05:45:27.002Z,25.91
2023-03-13T05:46:27.039Z,25.92
2023-03-13T05:47:26.977Z,25.92
2023-03-13T05:48:27.012Z,25.89
2023-03-13T05:49:26.958Z,25.92
2023-03-13T05:50:26.954Z,25.92
2023-03-13T05:51:26.999Z,25.91
2023-03-13T05:52:26.932Z,25.92
2023-03-13T05:53:26.954Z,25.92
2023-03-13T05:54:26.932Z,25.92
2023-03-13T05:55:26.930Z,25.91
2023-03-13T05:56:26.908Z,25.91
2023-03-13T05:57:26.880Z,25.89
2023-03-13T05:58:26.873Z,25.91
2023-03-13T05:59:26.925Z,25.89
2023-03-13T06:00:27.563Z,25.92
2023-03-13T06:01:26.902Z,25.89
2023-03-13T06:02:26.844Z,25.89
2023-03-13T06:03:26.886Z,25.89
2023-03-13T06:04:26.938Z,25.89
2023-03-13T06:05:26.816Z,25.91
2023-03-13T06:06:26.835Z,25.91
2023-03-13T06:07:26.794Z,25.89
2023-03-13T06:08:26.782Z,25.92
2023-03-13T06:09:26.778Z,25.89
2023-03-13T06:10:26.770Z,25.89
2023-03-13T06:11:26.756Z,25.91
2023-03-13T06:12:27.567Z,25.89
2023-03-13T06:13:26.739Z,25.91
2023-03-13T06:14:26.748Z,25.92
2023-03-13T06:15:26.851Z,25.89
2023-03-13T06:16:27.858Z,25.91
2023-03-13T06:17:26.715Z,25.91
2023-03-13T06:18:26.702Z,25.89
2023-03-13T06:19:26.692Z,25.91
2023-03-13T06:20:27.068Z,25.93
2023-03-13T06:21:26.677Z,25.89
2023-03-13T06:22:27.571Z,25.91
2023-03-13T06:23:26.666Z,25.92
2023-03-13T06:24:26.647Z,25.92
2023-03-13T06:25:27.568Z,25.93
2023-03-13T06:26:26.622Z,25.92
2023-03-13T06:27:26.613Z,25.93
2023-03-13T06:28:26.604Z,25.95
2023-03-13T06:29:26.609Z,25.96
2023-03-13T06:30:26.585Z,25.95
2023-03-13T06:31:26.696Z,25.97
2023-03-13T06:32:25.800Z,25.99
2023-03-13T06:33:26.616Z,26.00
2023-03-13T06:34:26.588Z,26.00
2023-03-13T06:35:27.583Z,26.02
2023-03-13T06:36:26.573Z,26.03
2023-03-13T06:37:26.524Z,26.06
2023-03-13T06:38:26.523Z,26.04
2023-03-13T06:39:26.584Z,26.04
2023-03-13T06:40:26.494Z,26.07
2023-03-13T06:41:26.493Z,26.07
2023-03-13T06:42:27.088Z,26.07
2023-03-13T06:43:27.112Z,26.06
2023-03-13T06:44:26.619Z,26.09
2023-03-13T06:45:26.457Z,26.10
2023-03-13T06:46:26.503Z,26.12
2023-03-13T06:47:26.469Z,26.10
2023-03-13T06:48:26.445Z,26.13
2023-03-13T06:49:26.484Z,26.13
2023-03-13T06:50:26.602Z,26.13
2023-03-13T06:51:26.493Z,26.12
2023-03-13T06:52:37.404Z,26.15
2023-03-13T06:53:27.533Z,26.15
2023-03-13T06:54:26.415Z,26.16
2023-03-13T06:55:26.632Z,26.17
2023-03-13T06:56:27.479Z,26.19
2023-03-13T06:57:26.363Z,26.20
2023-03-13T06:58:32.561Z,26.21
2023-03-13T06:59:26.322Z,26.21
2023-03-13T07:00:27.218Z,26.21
2023-03-13T07:01:29.976Z,26.24
2023-03-13T07:02:26.364Z,26.24
2023-03-13T07:03:26.429Z,26.29
2023-03-13T07:04:44.234Z,26.30
2023-03-13T07:06:26.349Z,26.31
2023-03-13T07:08:33.656Z,26.36
2023-03-13T07:10:26.223Z,26.38
2023-03-13T07:11:26.923Z,26.41
2023-03-13T07:12:26.209Z,26.43
2023-03-13T07:13:26.212Z,26.44
2023-03-13T07:14:26.384Z,26.44
2023-03-13T07:15:26.193Z,26.48
2023-03-13T07:16:26.265Z,26.51
2023-03-13T07:17:27.298Z,26.51
2023-03-13T07:18:26.176Z,26.52
2023-03-13T07:19:27.278Z,26.55
2023-03-13T07:20:27.201Z,26.54
2023-03-13T07:21:26.622Z,26.51
2023-03-13T07:22:26.131Z,26.50
2023-03-13T07:23:26.139Z,26.43
2023-03-13T07:24:26.217Z,26.44
2023-03-13T07:25:26.094Z,26.41
2023-03-13T07:26:26.187Z,26.44
2023-03-13T07:27:26.202Z,26.40
2023-03-13T07:28:27.152Z,26.45
2023-03-13T07:29:26.104Z,26.45
2023-03-13T07:30:26.056Z,26.48
2023-03-13T07:31:26.126Z,26.48
2023-03-13T07:32:26.114Z,26.52
2023-03-13T07:33:26.020Z,26.55
2023-03-13T07:34:26.030Z,26.56
2023-03-13T07:35:26.163Z,26.59
2023-03-13T07:36:27.114Z,26.59
2023-03-13T07:37:26.152Z,26.64
2023-03-13T07:38:27.145Z,26.64
2023-03-13T07:39:25.983Z,26.62
2023-03-13T07:40:25.966Z,26.58
2023-03-13T07:41:27.985Z,26.58
2023-03-13T07:42:26.149Z,26.56
2023-03-13T07:43:25.942Z,26.54
2023-03-13T07:44:25.941Z,26.51
2023-03-13T07:45:25.924Z,26.52
2023-03-13T07:46:26.546Z,26.48
2023-03-13T07:47:27.157Z,26.48
2023-03-13T07:48:26.351Z,26.48
2023-03-13T07:49:25.849Z,26.48
2023-03-13T07:50:26.184Z,26.45
2023-03-13T07:51:42.136Z,26.43
2023-03-13T07:52:25.823Z,26.43
2023-03-13T07:53:25.916Z,26.44
2023-03-13T07:54:25.801Z,26.43
2023-03-13T07:55:26.193Z,26.44
2023-03-13T07:56:25.786Z,26.43
2023-03-13T07:57:26.124Z,26.40
2023-03-13T07:58:25.781Z,26.40
2023-03-13T07:59:25.784Z,26.36
2023-03-13T08:00:25.781Z,26.37
2023-03-13T08:01:29.110Z,26.37
2023-03-13T08:02:26.010Z,26.34
2023-03-13T08:03:25.975Z,26.36
2023-03-13T08:04:25.988Z,26.34
2023-03-13T08:05:26.172Z,26.33
2023-03-13T08:06:25.917Z,26.34
2023-03-13T08:07:25.932Z,26.37
2023-03-13T08:08:26.168Z,26.33
2023-03-13T08:09:25.871Z,26.34
2023-03-13T08:10:25.872Z,26.34
2023-03-13T08:11:25.843Z,26.37
2023-03-13T08:12:25.832Z,26.37
2023-03-13T08:13:25.810Z,26.37
2023-03-13T08:14:26.167Z,26.37
2023-03-13T08:15:25.792Z,26.37
2023-03-13T08:16:26.187Z,26.37
2023-03-13T08:17:25.778Z,26.37
2023-03-13T08:18:26.166Z,26.38
2023-03-13T08:19:25.766Z,26.38
2023-03-13T08:20:25.827Z,26.38
2023-03-13T08:21:25.742Z,26.38
2023-03-13T08:22:25.729Z,26.40
2023-03-13T08:23:25.750Z,26.38
2023-03-13T08:24:25.710Z,26.37
2023-03-13T08:25:25.713Z,26.38
2023-03-13T08:26:25.734Z,26.41
2023-03-13T08:27:28.941Z,26.43
2023-03-13T08:28:26.139Z,26.44
2023-03-13T08:29:25.662Z,26.45
2023-03-13T08:30:25.651Z,26.47
2023-03-13T08:31:26.160Z,26.47
2023-03-13T08:32:25.689Z,26.47
2023-03-13T08:33:25.632Z,26.47
2023-03-13T08:34:25.623Z,26.47
2023-03-13T08:35:25.849Z,26.48
2023-03-13T08:36:25.641Z,26.45
2023-03-13T08:37:25.584Z,26.48
2023-03-13T08:38:25.647Z,26.50
2023-03-13T08:39:25.598Z,26.51
2023-03-13T08:40:25.652Z,26.51
2023-03-13T08:41:25.658Z,26.54
2023-03-13T08:42:25.554Z,26.51
2023-03-13T08:43:25.528Z,26.52
2023-03-13T08:44:25.673Z,26.55
2023-03-13T08:45:25.657Z,26.55
2023-03-13T08:46:26.247Z,26.56
2023-03-13T08:48:25.520Z,26.58
2023-03-13T08:49:25.483Z,26.58
2023-03-13T08:50:25.513Z,26.58
2023-03-13T08:51:25.693Z,26.59
2023-03-13T08:52:25.454Z,26.61
2023-03-13T08:53:25.468Z,26.61
2023-03-13T08:54:25.425Z,26.59
2023-03-13T08:55:26.635Z,26.59
2023-03-13T08:56:25.668Z,26.62
2023-03-13T08:57:25.404Z,26.59
2023-03-13T08:58:25.406Z,26.61
2023-03-13T08:59:25.657Z,26.61
2023-03-13T09:00:25.373Z,26.62
2023-03-13T09:01:25.363Z,26.62
2023-03-13T09:02:25.466Z,26.64
2023-03-13T09:03:26.387Z,26.62
2023-03-13T09:04:25.685Z,26.67
2023-03-13T09:05:27.376Z,26.67
2023-03-13T09:06:25.355Z,26.65
2023-03-13T09:07:25.315Z,26.65
2023-03-13T09:08:25.329Z,26.65
2023-03-13T09:09:25.700Z,26.65
2023-03-13T09:10:25.318Z,26.65
2023-03-13T09:11:26.210Z,26.64
2023-03-13T09:12:31.092Z,26.67
2023-03-13T09:13:25.281Z,26.65
2023-03-13T09:14:25.701Z,26.67
2023-03-13T09:15:25.262Z,26.68
2023-03-13T09:16:25.261Z,26.68
2023-03-13T09:17:25.255Z,26.68
2023-03-13T09:18:25.266Z,26.68
2023-03-13T09:19:25.213Z,26.68
2023-03-13T09:20:25.205Z,26.70
2023-03-13T09:21:25.719Z,26.68
2023-03-13T09:22:25.195Z,26.68
2023-03-13T09:24:25.178Z,26.72
2023-03-13T09:25:25.693Z,26.71
2023-03-13T09:26:25.737Z,26.72
2023-03-13T09:27:25.225Z,26.72
2023-03-13T09:28:25.137Z,26.74
2023-03-13T09:29:25.138Z,26.72
2023-03-13T09:30:25.105Z,26.74
2023-03-13T09:31:25.358Z,26.78
2023-03-13T09:32:25.735Z,26.77
2023-03-13T09:33:25.088Z,26.77
2023-03-13T09:34:25.084Z,26.77
2023-03-13T09:35:25.057Z,26.79
2023-03-13T09:36:26.197Z,26.79
2023-03-13T09:37:25.050Z,26.78
2023-03-13T09:38:25.046Z,26.78
2023-03-13T09:39:25.036Z,26.77
2023-03-13T09:40:28.234Z,26.78
2023-03-13T09:41:25.015Z,26.78
2023-03-13T09:42:25.176Z,26.77
2023-03-13T09:43:25.079Z,26.81
2023-03-13T09:44:24.966Z,26.79
2023-03-13T09:45:24.956Z,26.79
2023-03-13T09:46:25.039Z,26.79
2023-03-13T09:47:26.434Z,26.81
2023-03-13T09:48:24.938Z,26.82
2023-03-13T09:49:25.270Z,26.81
2023-03-13T09:50:24.904Z,26.82
2023-03-13T09:51:25.182Z,26.82
2023-03-13T09:52:25.193Z,26.83
2023-03-13T09:53:24.880Z,26.83
2023-03-13T09:54:25.181Z,26.81
2023-03-13T09:55:24.865Z,26.82
2023-03-13T09:56:24.874Z,26.83
2023-03-13T09:57:24.850Z,26.85
2023-03-13T09:58:24.835Z,26.83
2023-03-13T09:59:24.859Z,26.83
2023-03-13T10:01:24.820Z,26.82
2023-03-13T10:02:24.821Z,26.83
2023-03-13T10:03:24.791Z,26.83
2023-03-13T10:04:24.873Z,26.82
2023-03-13T10:05:24.766Z,26.82
2023-03-13T10:06:25.198Z,26.83
2023-03-13T10:07:24.756Z,26.86
2023-03-13T10:08:25.199Z,26.85
2023-03-13T10:09:24.736Z,26.86
2023-03-13T10:10:24.715Z,26.86
2023-03-13T10:11:27.687Z,26.88
2023-03-13T10:13:24.695Z,26.88
2023-03-13T10:14:24.688Z,26.89
2023-03-13T10:15:24.699Z,26.86
2023-03-13T10:16:24.685Z,26.86
2023-03-13T10:17:24.683Z,26.88
2023-03-13T10:18:24.690Z,26.89
2023-03-13T10:19:24.642Z,26.86
2023-03-13T10:20:24.627Z,26.85
2023-03-13T10:21:24.616Z,26.88
2023-03-13T10:22:24.701Z,26.86
2023-03-13T10:23:24.604Z,26.85
2023-03-13T10:24:24.606Z,26.86
2023-03-13T10:25:24.589Z,26.85
2023-03-13T10:26:24.582Z,26.88
2023-03-13T10:27:24.561Z,26.88
2023-03-13T10:28:24.557Z,26.88
2023-03-13T10:29:24.710Z,26.86
2023-03-13T10:30:24.542Z,26.88
2023-03-13T10:31:24.759Z,26.85
2023-03-13T10:32:24.577Z,26.83
2023-03-13T10:33:24.511Z,26.78
2023-03-13T10:34:24.706Z,26.78
2023-03-13T10:35:25.186Z,26.78
2023-03-13T10:36:24.498Z,26.79
2023-03-13T10:37:24.474Z,26.79
2023-03-13T10:38:25.780Z,26.79
2023-03-13T10:39:24.530Z,26.81
2023-03-13T10:40:24.467Z,26.82
2023-03-13T10:41:24.448Z,26.86
2023-03-13T10:42:24.434Z,26.86
2023-03-13T10:43:24.985Z,26.89
2023-03-13T10:44:26.000Z,26.89
2023-03-13T10:45:25.422Z,26.89
2023-03-13T10:46:56.439Z,26.90
2023-03-13T10:47:24.476Z,26.92
2023-03-13T10:48:24.715Z,26.90
2023-03-13T10:49:24.466Z,26.93
2023-03-13T10:50:24.706Z,26.96
2023-03-13T10:51:24.443Z,26.93
2023-03-13T10:52:24.710Z,26.96
2023-03-13T10:53:24.552Z,26.98
2023-03-13T10:54:24.427Z,26.99
2023-03-13T10:55:24.403Z,27.00
2023-03-13T10:56:24.422Z,26.99
2023-03-13T10:57:24.708Z,27.00
2023-03-13T10:58:24.381Z,27.00
2023-03-13T10:59:23.443Z,27.02
2023-03-13T11:00:24.374Z,27.03
2023-03-13T11:01:24.702Z,27.02
2023-03-13T11:02:24.802Z,27.00
2023-03-13T11:03:24.462Z,27.02
2023-03-13T11:04:24.324Z,27.02
2023-03-13T11:05:24.339Z,26.99
2023-03-13T11:06:24.311Z,26.99
2023-03-13T11:07:24.297Z,26.99
2023-03-13T11:08:24.317Z,26.99
2023-03-13T11:09:25.236Z,26.99
2023-03-13T11:10:24.263Z,27.00
2023-03-13T11:11:24.744Z,27.02
2023-03-13T11:12:24.243Z,26.99
2023-03-13T11:13:35.730Z,26.99
2023-03-13T11:14:24.233Z,26.98
2023-03-13T11:15:24.384Z,26.99
2023-03-13T11:16:24.300Z,26.99
2023-03-13T11:17:24.231Z,26.99
2023-03-13T11:18:24.242Z,27.00
2023-03-13T11:19:24.192Z,27.00
2023-03-13T11:20:24.170Z,26.99
2023-03-13T11:21:24.165Z,27.00
2023-03-13T11:22:24.258Z,26.99
2023-03-13T11:23:24.213Z,26.96
2023-03-13T11:24:24.136Z,26.96
2023-03-13T11:25:24.132Z,26.99
2023-03-13T11:26:24.117Z,26.93
2023-03-13T11:27:24.138Z,26.92
2023-03-13T11:28:24.243Z,26.93
2023-03-13T11:29:24.158Z,26.92
2023-03-13T11:30:24.330Z,26.92
2023-03-13T11:31:25.162Z,26.89
2023-03-13T11:32:24.135Z,26.88
2023-03-13T11:33:24.063Z,26.90
2023-03-13T11:34:25.296Z,26.88
2023-03-13T11:35:24.237Z,26.86
2023-03-13T11:36:24.024Z,26.85
2023-03-13T11:37:24.012Z,26.83
2023-03-13T11:38:24.002Z,26.85
2023-03-13T11:39:24.233Z,26.85
2023-03-13T11:42:23.966Z,26.83
2023-03-13T11:43:25.674Z,26.82
2023-03-13T11:44:23.953Z,26.83
2023-03-13T11:46:24.237Z,26.82
2023-03-13T11:47:23.917Z,26.83
2023-03-13T11:48:23.917Z,26.81
2023-03-13T11:49:27.464Z,26.85
2023-03-13T11:50:24.234Z,26.85
2023-03-13T11:51:24.021Z,26.85
2023-03-13T11:52:23.882Z,26.83
2023-03-13T11:53:23.952Z,26.88
2023-03-13T11:54:24.237Z,26.85
2023-03-13T11:55:23.855Z,26.88
2023-03-13T11:56:24.258Z,26.89
2023-03-13T11:57:23.846Z,26.89
2023-03-13T11:58:23.819Z,26.90
2023-03-13T11:59:23.821Z,26.92
2023-03-13T12:00:23.814Z,26.89
2023-03-13T12:02:23.845Z,26.92
2023-03-13T12:03:23.811Z,26.89
2023-03-13T12:04:24.254Z,26.92
2023-03-13T12:05:23.846Z,26.93
2023-03-13T12:06:28.410Z,26.90
2023-03-13T12:07:23.746Z,26.90
2023-03-13T12:08:23.739Z,26.90
2023-03-13T12:09:23.774Z,26.90
2023-03-13T12:10:25.230Z,26.90
2023-03-13T12:11:23.756Z,26.90
2023-03-13T12:12:23.768Z,26.93
2023-03-13T12:13:23.723Z,26.93
2023-03-13T12:14:23.714Z,26.92
2023-03-13T12:15:23.706Z,26.90
2023-03-13T12:16:23.845Z,26.92
2023-03-13T12:17:23.735Z,26.92
2023-03-13T12:23:24.971Z,26.82
2023-03-13T12:27:26.477Z,26.98
2023-03-13T12:31:25.423Z,27.03
2023-03-13T12:35:25.359Z,27.16
2023-03-13T12:39:25.952Z,27.32
2023-03-13T12:43:25.937Z,27.44
2023-03-13T12:47:27.962Z,27.52
2023-03-13T12:51:25.956Z,27.59
2023-03-13T12:55:26.004Z,27.61
2023-03-13T12:59:26.978Z,27.59
2023-03-13T13:03:25.949Z,27.68
2023-03-13T13:07:25.962Z,27.72
2023-03-13T13:11:25.966Z,27.78
2023-03-13T13:15:25.967Z,27.85
2023-03-13T13:19:26.010Z,27.91
2023-03-13T13:23:25.955Z,27.96
2023-03-13T13:27:26.160Z,28.00
2023-03-13T13:31:25.772Z,28.04
2023-03-13T13:35:26.009Z,28.09
2023-03-13T13:39:25.961Z,28.04
2023-03-13T13:43:26.576Z,28.06
2023-03-13T13:47:25.960Z,28.10
2023-03-13T13:51:26.493Z,28.16
2023-03-13T13:55:26.089Z,28.20
2023-03-13T13:59:26.606Z,28.13
2023-03-13T14:03:26.586Z,28.10
2023-03-13T14:07:26.462Z,28.12
2023-03-13T14:11:26.966Z,28.07
2023-03-13T14:15:27.019Z,28.00
2023-03-13T14:19:27.472Z,27.96
2023-03-13T14:23:26.991Z,27.88
2023-03-13T14:27:27.089Z,27.85
2023-03-13T14:31:27.180Z,27.81
2023-03-13T14:35:26.987Z,27.78
2023-03-13T14:39:26.995Z,27.72
2023-03-13T14:43:26.989Z,27.68
2023-03-13T14:47:27.052Z,27.65
2023-03-13T14:51:26.990Z,27.61
2023-03-13T14:55:27.075Z,27.61
2023-03-13T14:59:27.153Z,27.57
2023-03-13T15:03:26.871Z,27.55
2023-03-13T15:07:27.062Z,27.55
2023-03-13T15:11:26.992Z,27.52
2023-03-13T15:15:27.020Z,27.48
2023-03-13T15:19:27.535Z,27.41
2023-03-13T15:23:27.504Z,27.36
2023-03-13T15:27:27.401Z,27.34
2023-03-13T15:31:28.115Z,27.33
2023-03-13T15:35:28.058Z,27.29
2023-03-13T15:39:29.695Z,27.29
2023-03-13T15:43:27.840Z,27.27
2023-03-13T15:47:28.043Z,27.26
2023-03-13T15:51:27.925Z,27.22
2023-03-13T15:55:28.595Z,27.20
2023-03-13T15:59:27.681Z,27.17
2023-03-13T16:03:28.022Z,27.14
2023-03-13T16:07:28.619Z,27.13
2023-03-13T16:11:27.704Z,27.11
2023-03-13T16:15:28.027Z,27.10
2023-03-13T16:19:28.029Z,27.06
2023-03-13T16:23:27.635Z,27.05
2023-03-13T16:27:28.035Z,27.06
2023-03-13T16:31:27.693Z,27.03
2023-03-13T16:35:27.765Z,27.00
2023-03-13T16:39:27.924Z,27.02
2023-03-13T16:43:27.896Z,26.98
2023-03-13T16:47:27.826Z,26.98
2023-03-13T16:51:27.786Z,26.90
2023-03-13T16:55:27.783Z,26.92
2023-03-13T16:59:27.744Z,26.88
2023-03-13T17:03:27.695Z,26.86
2023-03-13T17:07:27.676Z,26.85
2023-03-13T17:11:27.665Z,26.85
2023-03-13T17:15:28.118Z,26.85
2023-03-13T17:19:28.052Z,26.81
2023-03-13T17:23:28.193Z,26.79
2023-03-13T17:27:28.480Z,26.79
2023-03-13T17:31:28.655Z,26.75
2023-03-13T17:35:28.522Z,26.75
2023-03-13T17:39:28.629Z,26.77
2023-03-13T17:43:28.604Z,26.75
2023-03-13T17:47:29.101Z,26.75
2023-03-13T17:51:29.063Z,26.75
2023-03-13T17:55:28.833Z,26.72
2023-03-13T17:59:29.516Z,26.71
2023-03-13T18:03:28.955Z,26.70
2023-03-13T18:07:28.998Z,26.71
2023-03-13T18:11:28.995Z,26.71
2023-03-13T18:15:29.039Z,26.67
2023-03-13T18:19:28.981Z,26.64
2023-03-13T18:23:28.968Z,26.67
2023-03-13T18:27:29.083Z,26.67
2023-03-13T18:31:29.175Z,26.70
2023-03-13T18:35:28.991Z,26.67
2023-03-13T18:39:28.874Z,26.65
2023-03-13T18:43:28.878Z,26.67
2023-03-13T18:47:29.053Z,26.64